createdAt,value
2022-08-19T00:01:53.812Z,3.72
2022-08-19T00:03:57.707Z,3.60
2022-08-19T00:06:01.229Z,3.17
2022-08-19T00:08:05.365Z,3.45
2022-08-19T00:10:15.411Z,3.28
2022-08-19T00:12:20.809Z,3.33
2022-08-19T00:14:25.919Z,3.53
2022-08-19T00:16:29.485Z,4.10
2022-08-19T00:18:33.621Z,3.33
2022-08-19T00:20:37.550Z,3.55
2022-08-19T00:22:42.428Z,2.95
2022-08-19T00:24:49.621Z,3.40
2022-08-19T00:26:56.301Z,4.20
2022-08-19T00:29:01.849Z,3.90
2022-08-19T00:31:06.424Z,3.58
2022-08-19T00:33:10.157Z,3.83
2022-08-19T00:35:13.995Z,3.97
2022-08-19T00:37:17.548Z,3.55
2022-08-19T00:39:21.302Z,3.63
2022-08-19T00:41:26.810Z,3.17
2022-08-19T00:43:30.409Z,3.88
2022-08-19T00:45:37.134Z,3.58
2022-08-19T00:47:40.652Z,4.75
2022-08-19T00:49:51.854Z,3.92
2022-08-19T00:52:02.767Z,3.92
2022-08-19T00:54:06.576Z,3.78
2022-08-19T00:56:10.218Z,3.75
2022-08-19T00:58:18.585Z,5.57
2022-08-19T01:00:22.902Z,4.53
2022-08-19T01:02:29.923Z,4.72
2022-08-19T01:04:33.424Z,3.75
2022-08-19T01:06:39.199Z,4.00
2022-08-19T01:08:42.611Z,4.68
2022-08-19T01:10:49.289Z,3.95
2022-08-19T01:12:54.446Z,4.43
2022-08-19T01:14:58.183Z,3.78
2022-08-19T01:17:03.805Z,4.40
2022-08-19T01:19:15.016Z,3.70
2022-08-19T01:21:31.950Z,4.10
2022-08-19T01:23:45.788Z,3.13
2022-08-19T01:25:56.970Z,4.28
2022-08-19T01:30:17.529Z,4.45
2022-08-19T01:32:33.502Z,4.07
2022-08-19T01:34:37.466Z,4.38
2022-08-19T01:36:44.049Z,3.85
2022-08-19T01:38:49.578Z,3.97
2022-08-19T01:40:53.340Z,3.85
2022-08-19T01:42:57.344Z,4.03
2022-08-19T01:45:01.490Z,4.20
2022-08-19T01:47:05.921Z,4.30
2022-08-19T01:49:09.638Z,4.75
2022-08-19T01:51:14.987Z,4.45
2022-08-19T01:53:18.707Z,4.10
2022-08-19T01:55:24.931Z,4.57
2022-08-19T01:57:28.389Z,4.40
2022-08-19T01:59:32.760Z,4.32
2022-08-19T02:01:36.102Z,3.75
2022-08-19T02:03:39.623Z,4.45
2022-08-19T02:05:44.151Z,4.55
2022-08-19T02:07:47.615Z,4.03
2022-08-19T02:09:50.951Z,6.05
2022-08-19T02:11:55.626Z,3.92
2022-08-19T02:13:59.674Z,4.05
2022-08-19T02:16:04.217Z,4.80
2022-08-19T02:18:10.559Z,4.10
2022-08-19T02:20:14.535Z,3.90
2022-08-19T02:22:17.948Z,3.60
2022-08-19T02:24:21.174Z,3.72
2022-08-19T02:26:24.555Z,3.50
2022-08-19T02:28:29.317Z,4.13
2022-08-19T02:30:33.136Z,3.80
2022-08-19T02:32:44.412Z,3.53
2022-08-19T02:34:48.895Z,3.67
2022-08-19T02:36:52.515Z,5.68
2022-08-19T02:38:56.360Z,4.13
2022-08-19T02:41:02.438Z,3.80
2022-08-19T02:43:07.865Z,3.85
2022-08-19T02:45:13.407Z,3.55
2022-08-19T02:47:17.504Z,4.10
2022-08-19T02:49:21.857Z,4.10
2022-08-19T02:51:27.699Z,4.57
2022-08-19T02:53:31.621Z,4.03
2022-08-19T02:55:45.979Z,4.10
2022-08-19T02:57:50.554Z,3.30
2022-08-19T02:59:54.208Z,2.88
2022-08-19T03:01:59.213Z,2.92
2022-08-19T03:04:05.437Z,3.75
2022-08-19T03:06:13.833Z,3.72
2022-08-19T03:08:17.487Z,3.85
2022-08-19T03:10:21.484Z,3.60
2022-08-19T03:12:25.002Z,4.15
2022-08-19T03:14:29.012Z,3.33
2022-08-19T03:16:37.829Z,3.50
2022-08-19T03:18:43.004Z,4.10
2022-08-19T03:20:48.974Z,3.40
2022-08-19T03:22:52.684Z,2.85
2022-08-19T03:24:56.586Z,3.20
2022-08-19T03:27:00.558Z,3.10
2022-08-19T03:29:05.650Z,3.10
2022-08-19T03:31:42.155Z,3.30
2022-08-19T03:33:37.272Z,2.67
2022-08-19T03:35:42.332Z,2.97
2022-08-19T03:37:45.908Z,3.13
2022-08-19T03:39:49.647Z,3.13
2022-08-19T03:42:32.110Z,3.25
2022-08-19T03:44:24.792Z,3.63
2022-08-19T03:46:30.910Z,4.45
2022-08-19T03:48:35.878Z,2.70
2022-08-19T03:50:43.186Z,2.78
2022-08-19T03:52:51.634Z,4.68
2022-08-19T03:54:55.308Z,3.00
2022-08-19T03:57:00.439Z,2.95
2022-08-19T03:59:05.310Z,4.35
2022-08-19T04:01:10.801Z,2.15
2022-08-19T04:03:14.377Z,3.03
2022-08-19T04:05:18.061Z,2.85
2022-08-19T04:07:23.200Z,2.65
2022-08-19T04:09:27.350Z,2.55
2022-08-19T04:11:43.563Z,2.33
2022-08-19T04:13:48.109Z,2.53
2022-08-19T04:15:52.035Z,2.80
2022-08-19T04:17:55.960Z,2.75
2022-08-19T04:19:59.742Z,2.60
2022-08-19T04:22:05.156Z,2.85
2022-08-19T04:24:12.174Z,2.90
2022-08-19T04:26:16.905Z,2.92
2022-08-19T04:28:20.458Z,3.15
2022-08-19T04:30:24.008Z,3.40
2022-08-19T04:32:27.648Z,3.80
2022-08-19T04:34:31.815Z,2.90
2022-08-19T04:36:38.107Z,2.65
2022-08-19T04:38:41.662Z,2.53
2022-08-19T04:41:06.871Z,2.58
2022-08-19T04:43:15.627Z,2.38
2022-08-19T04:45:19.294Z,2.13
2022-08-19T04:47:48.123Z,2.42
2022-08-19T04:49:50.667Z,2.33
2022-08-19T04:51:56.255Z,2.25
2022-08-19T04:54:01.027Z,2.72
2022-08-19T04:56:10.758Z,2.65
2022-08-19T04:58:14.469Z,2.38
2022-08-19T05:00:19.233Z,2.30
2022-08-19T05:02:24.278Z,3.70
2022-08-19T05:04:29.936Z,2.67
2022-08-19T05:06:34.841Z,4.15
2022-08-19T05:08:42.083Z,3.13
2022-08-19T05:10:45.673Z,2.55
2022-08-19T05:12:50.625Z,2.72
2022-08-19T05:14:54.100Z,2.25
2022-08-19T05:17:23.665Z,2.30
2022-08-19T05:19:38.473Z,3.30
2022-08-19T05:22:01.401Z,3.10
2022-08-19T05:24:09.577Z,2.43
2022-08-19T05:26:13.866Z,3.13
2022-08-19T05:28:18.873Z,2.30
2022-08-19T05:30:33.527Z,2.80
2022-08-19T05:32:45.996Z,2.72
2022-08-19T05:34:50.229Z,2.53
2022-08-19T05:36:58.205Z,2.65
2022-08-19T05:39:02.043Z,2.08
2022-08-19T05:41:09.780Z,2.45
2022-08-19T05:43:13.268Z,2.25
2022-08-19T05:45:18.294Z,3.05
2022-08-19T05:47:22.441Z,2.70
2022-08-19T05:49:28.128Z,2.35
2022-08-19T05:51:31.722Z,2.42
2022-08-19T05:53:35.974Z,3.83
2022-08-19T05:55:41.388Z,2.65
2022-08-19T05:57:44.916Z,2.20
2022-08-19T05:59:52.648Z,2.10
2022-08-19T06:01:58.524Z,2.63
2022-08-19T06:04:02.285Z,2.53
2022-08-19T06:06:06.649Z,2.03
2022-08-19T06:08:10.329Z,2.30
2022-08-19T06:10:14.033Z,1.73
2022-08-19T06:12:17.691Z,2.17
2022-08-19T06:14:27.728Z,2.10
2022-08-19T06:16:35.102Z,1.90
2022-08-19T06:18:40.444Z,2.10
2022-08-19T06:20:55.401Z,1.63
2022-08-19T06:23:00.264Z,2.22
2022-08-19T06:25:05.500Z,1.60
2022-08-19T06:27:09.192Z,1.98
2022-08-19T06:29:23.477Z,2.10
2022-08-19T06:31:30.159Z,2.53
2022-08-19T06:33:33.727Z,1.85
2022-08-19T06:35:43.142Z,2.20
2022-08-19T06:37:46.975Z,2.30
2022-08-19T06:39:51.661Z,1.70
2022-08-19T06:41:58.935Z,1.90
2022-08-19T06:44:07.425Z,1.77
2022-08-19T06:46:19.791Z,2.42
2022-08-19T06:48:23.459Z,2.28
2022-08-19T06:50:30.104Z,1.65
2022-08-19T06:52:38.469Z,1.60
2022-08-19T06:54:55.368Z,1.80
2022-08-19T06:57:03.089Z,2.03
2022-08-19T06:59:08.681Z,2.10
2022-08-19T07:01:12.824Z,1.88
2022-08-19T07:03:16.801Z,1.88
2022-08-19T07:05:20.682Z,1.77
2022-08-19T07:07:24.274Z,1.55
2022-08-19T07:09:29.515Z,1.38
2022-08-19T07:11:34.966Z,1.45
2022-08-19T07:13:39.924Z,1.45
2022-08-19T07:15:44.101Z,1.30
2022-08-19T07:17:52.650Z,1.35
2022-08-19T07:19:56.489Z,2.20
2022-08-19T07:22:03.610Z,2.03
2022-08-19T07:24:07.893Z,1.70
2022-08-19T07:26:16.095Z,2.17
2022-08-19T07:28:24.407Z,1.95
2022-08-19T07:30:28.607Z,3.90
2022-08-19T07:32:32.761Z,2.13
2022-08-19T07:34:38.709Z,2.08
2022-08-19T07:36:44.780Z,1.90
2022-08-19T07:38:50.285Z,1.55
2022-08-19T07:40:55.133Z,1.50
2022-08-19T07:43:00.333Z,1.20
2022-08-19T07:45:03.984Z,1.30
2022-08-19T07:47:07.946Z,1.45
2022-08-19T07:49:31.801Z,1.27
2022-08-19T07:51:36.354Z,1.02
2022-08-19T07:53:40.632Z,1.42
2022-08-19T07:55:44.226Z,1.50
2022-08-19T07:57:47.795Z,1.23
2022-08-19T07:59:52.720Z,1.33
2022-08-19T08:01:56.384Z,1.42
2022-08-19T08:04:18.135Z,1.52
2022-08-19T08:06:39.172Z,1.60
2022-08-19T08:09:00.120Z,1.83
2022-08-19T08:11:04.191Z,1.50
2022-08-19T08:13:11.254Z,2.05
2022-08-19T08:15:19.683Z,1.52
2022-08-19T08:17:31.159Z,1.17
2022-08-19T08:19:51.968Z,1.98
2022-08-19T08:21:56.545Z,1.83
2022-08-19T08:26:07.795Z,1.77
2022-08-19T08:28:17.405Z,1.75
2022-08-19T08:30:26.382Z,1.80
2022-08-19T08:32:34.777Z,1.85
2022-08-19T08:34:39.465Z,1.70
2022-08-19T08:36:48.614Z,2.17
2022-08-19T08:41:08.919Z,1.30
2022-08-19T08:43:24.105Z,1.30
2022-08-19T08:45:30.419Z,2.45
2022-08-19T08:47:48.598Z,1.45
2022-08-19T08:49:58.005Z,1.73
2022-08-19T08:52:06.610Z,1.65
2022-08-19T08:54:14.404Z,1.55
2022-08-19T08:56:18.815Z,1.80
2022-08-19T08:58:30.414Z,1.50
2022-08-19T09:00:39.229Z,1.65
2022-08-19T09:02:43.495Z,1.83
2022-08-19T09:04:47.863Z,1.30
2022-08-19T09:07:01.907Z,1.30
2022-08-19T09:09:32.208Z,1.23
2022-08-19T09:11:50.047Z,1.10
2022-08-19T09:14:29.232Z,1.50
2022-08-19T09:16:35.530Z,0.90
2022-08-19T09:18:45.638Z,1.10
2022-08-19T09:20:49.668Z,1.08
2022-08-19T09:22:53.193Z,1.40
2022-08-19T09:24:57.666Z,1.60
2022-08-19T09:27:06.696Z,1.85
2022-08-19T09:29:22.862Z,1.23
2022-08-19T09:31:28.593Z,1.13
2022-08-19T09:33:34.012Z,1.20
2022-08-19T09:35:53.071Z,1.25
2022-08-19T09:37:59.851Z,1.65
2022-08-19T09:40:03.885Z,1.08
2022-08-19T09:42:16.238Z,0.95
2022-08-19T09:44:24.433Z,1.40
2022-08-19T09:46:32.611Z,1.50
2022-08-19T09:48:38.321Z,1.75
2022-08-19T09:50:51.652Z,1.35
2022-08-19T09:52:57.415Z,1.35
2022-08-19T09:55:01.812Z,1.40
2022-08-19T09:57:10.937Z,1.45
2022-08-19T09:59:14.543Z,1.20
2022-08-19T10:01:21.511Z,1.52
2022-08-19T10:03:29.854Z,1.58
2022-08-19T10:05:55.277Z,1.50
2022-08-19T10:08:02.069Z,1.00
2022-08-19T10:10:10.428Z,1.30
2022-08-19T10:12:17.877Z,1.60
2022-08-19T10:14:24.805Z,1.73
2022-08-19T10:16:30.186Z,1.73
2022-08-19T10:18:35.618Z,1.45
2022-08-19T10:20:43.314Z,1.63
2022-08-19T10:22:46.977Z,1.90
2022-08-19T10:24:56.033Z,1.40
2022-08-19T10:27:00.151Z,1.60
2022-08-19T10:29:05.469Z,1.27
2022-08-19T10:31:10.635Z,1.77
2022-08-19T10:33:15.235Z,1.20
2022-08-19T10:35:56.609Z,1.40
2022-08-19T10:38:04.643Z,1.95
2022-08-19T10:40:11.970Z,2.42
2022-08-19T10:42:17.263Z,1.90
2022-08-19T10:44:22.826Z,1.88
2022-08-19T10:46:28.718Z,1.83
2022-08-19T10:48:32.342Z,2.20
2022-08-19T10:50:52.448Z,1.88
2022-08-19T10:52:56.358Z,1.60
2022-08-19T10:55:18.758Z,1.70
2022-08-19T10:57:27.920Z,1.60
2022-08-19T10:59:40.854Z,1.70
2022-08-19T11:01:47.893Z,3.83
2022-08-19T11:03:55.083Z,1.77
2022-08-19T11:06:02.563Z,1.77
2022-08-19T11:08:17.636Z,1.50
2022-08-19T11:10:29.044Z,1.13
2022-08-19T11:12:33.607Z,1.70
2022-08-19T11:14:37.759Z,1.55
2022-08-19T11:16:41.929Z,1.60
2022-08-19T11:18:47.830Z,2.10
2022-08-19T11:20:51.451Z,1.65
2022-08-19T11:22:55.792Z,1.65
2022-08-19T11:24:59.493Z,2.45
2022-08-19T11:27:06.951Z,2.05
2022-08-19T11:29:13.891Z,1.85
2022-08-19T11:31:20.070Z,2.28
2022-08-19T11:33:23.564Z,1.55
2022-08-19T11:35:27.131Z,1.40
2022-08-19T11:37:30.761Z,1.65
2022-08-19T11:39:36.755Z,1.83
2022-08-19T11:41:40.298Z,1.60
2022-08-19T11:43:45.505Z,2.10
2022-08-19T11:45:49.967Z,2.03
2022-08-19T11:47:54.053Z,2.00
2022-08-19T11:49:57.668Z,1.70
2022-08-19T11:52:01.281Z,1.35
2022-08-19T11:54:07.938Z,2.35
2022-08-19T11:56:12.065Z,2.25
2022-08-19T11:58:18.843Z,2.10
2022-08-19T12:00:24.472Z,2.10
2022-08-19T12:02:28.344Z,3.00
2022-08-19T12:04:31.872Z,2.75
2022-08-19T12:06:35.965Z,2.58
2022-08-19T12:08:39.667Z,2.58
2022-08-19T12:10:43.341Z,2.50
2022-08-19T12:12:56.396Z,2.28
2022-08-19T12:15:03.321Z,2.45
2022-08-19T12:17:10.188Z,2.20
2022-08-19T12:19:13.973Z,2.33
2022-08-19T12:21:29.032Z,2.22
2022-08-19T12:23:32.710Z,2.38
2022-08-19T12:25:36.429Z,2.28
2022-08-19T12:27:41.689Z,2.67
2022-08-19T12:29:46.625Z,2.10
2022-08-19T12:31:50.212Z,2.58
2022-08-19T12:33:55.536Z,2.40
2022-08-19T12:36:03.446Z,2.55
2022-08-19T12:38:07.931Z,2.80
2022-08-19T12:40:13.696Z,2.72
2022-08-19T12:42:18.169Z,2.65
2022-08-19T12:44:29.530Z,2.30
2022-08-19T12:46:35.673Z,2.40
2022-08-19T12:48:42.956Z,3.08
2022-08-19T12:50:48.397Z,2.78
2022-08-19T12:52:52.265Z,2.42
2022-08-19T12:54:57.947Z,3.10
2022-08-19T12:57:01.870Z,3.20
2022-08-19T12:59:06.965Z,3.63
2022-08-19T13:01:13.113Z,3.40
2022-08-19T13:03:17.459Z,3.15
2022-08-19T13:05:24.027Z,3.80
2022-08-19T13:07:29.314Z,3.38
2022-08-19T13:09:35.670Z,3.03
2022-08-19T13:11:40.286Z,2.90
2022-08-19T13:13:45.292Z,3.20
2022-08-19T13:15:48.826Z,2.85
2022-08-19T13:17:54.402Z,2.78
2022-08-19T13:19:58.372Z,3.13
2022-08-19T13:22:01.923Z,3.10
2022-08-19T13:24:07.557Z,2.92
2022-08-19T13:26:12.591Z,3.35
2022-08-19T13:28:16.208Z,2.75
2022-08-19T13:30:38.957Z,3.38
2022-08-19T13:32:59.536Z,3.40
2022-08-19T13:35:03.181Z,4.43
2022-08-19T13:37:07.377Z,3.50
2022-08-19T13:39:12.537Z,3.00
2022-08-19T13:41:16.182Z,3.60
2022-08-19T13:43:23.355Z,2.95
2022-08-19T13:45:30.317Z,2.97
2022-08-19T13:47:35.724Z,2.85
2022-08-19T13:49:39.240Z,2.60
2022-08-19T13:51:43.078Z,2.80
2022-08-19T13:53:48.186Z,2.28
2022-08-19T13:55:54.751Z,3.15
2022-08-19T13:58:01.286Z,3.00
2022-08-19T14:00:06.829Z,3.28
2022-08-19T14:02:11.937Z,1.73
2022-08-19T14:04:15.635Z,2.67
2022-08-19T14:06:19.519Z,2.10
2022-08-19T14:08:23.432Z,2.28
2022-08-19T14:10:29.438Z,2.13
2022-08-19T14:12:34.924Z,2.13
2022-08-19T14:14:39.549Z,2.40
2022-08-19T14:16:43.934Z,2.55
2022-08-19T14:18:47.480Z,2.10
2022-08-19T14:20:51.147Z,2.47
2022-08-19T14:22:55.870Z,2.47
2022-08-19T14:25:00.120Z,2.10
2022-08-19T14:27:04.505Z,1.92
2022-08-19T14:29:10.158Z,2.03
2022-08-19T14:31:17.735Z,2.00
2022-08-19T14:33:21.412Z,2.17
2022-08-19T14:35:35.729Z,2.00
2022-08-19T14:37:45.366Z,2.08
2022-08-19T14:39:49.573Z,2.40
2022-08-19T14:41:53.476Z,2.60
2022-08-19T14:43:57.358Z,2.10
2022-08-19T14:46:02.998Z,1.77
2022-08-19T14:48:07.572Z,1.77
2022-08-19T14:50:18.383Z,2.25
2022-08-19T14:52:22.321Z,2.00
2022-08-19T14:54:26.166Z,2.40
2022-08-19T14:56:33.999Z,2.50
2022-08-19T14:58:39.132Z,1.95
2022-08-19T15:00:42.925Z,2.03
2022-08-19T15:02:48.029Z,2.17
2022-08-19T15:04:58.285Z,2.35
2022-08-19T15:07:05.615Z,1.90
2022-08-19T15:09:09.139Z,2.35
2022-08-19T15:11:15.630Z,2.25
2022-08-19T15:13:20.004Z,2.20
2022-08-19T15:15:23.939Z,1.75
2022-08-19T15:17:45.895Z,2.67
2022-08-19T15:19:51.484Z,1.90
2022-08-19T15:21:55.964Z,2.20
2022-08-19T15:24:01.673Z,4.28
2022-08-19T15:26:06.503Z,2.03
2022-08-19T15:28:12.246Z,2.53
2022-08-19T15:30:22.629Z,2.08
2022-08-19T15:32:27.589Z,2.42
2022-08-19T15:34:32.595Z,1.73
2022-08-19T15:36:38.097Z,2.10
2022-08-19T15:38:46.093Z,2.10
2022-08-19T15:40:50.712Z,1.80
2022-08-19T15:42:54.839Z,3.00
2022-08-19T15:45:01.063Z,2.25
2022-08-19T15:47:06.103Z,1.80
2022-08-19T15:49:11.189Z,1.77
2022-08-19T15:51:14.872Z,1.58
2022-08-19T15:53:19.796Z,1.83
2022-08-19T15:55:33.013Z,1.67
2022-08-19T15:57:55.186Z,1.88
2022-08-19T16:00:16.283Z,1.40
2022-08-19T16:02:43.540Z,1.65
2022-08-19T16:05:06.795Z,1.65
2022-08-19T16:07:10.532Z,2.22
2022-08-19T16:09:17.164Z,1.38
2022-08-19T16:11:22.973Z,1.70
2022-08-19T16:13:26.825Z,1.63
2022-08-19T16:15:32.423Z,1.38
2022-08-19T16:17:36.371Z,1.80
2022-08-19T16:19:40.769Z,2.95
2022-08-19T16:21:45.426Z,1.75
2022-08-19T16:23:50.499Z,1.48
2022-08-19T16:25:55.591Z,2.58
2022-08-19T16:28:07.760Z,1.80
2022-08-19T16:30:12.558Z,2.08
2022-08-19T16:32:16.510Z,1.70
2022-08-19T16:34:20.009Z,1.80
2022-08-19T16:36:24.979Z,2.00
2022-08-19T16:38:29.495Z,1.60
2022-08-19T16:40:33.050Z,1.70
2022-08-19T16:42:38.073Z,1.58
2022-08-19T16:44:45.225Z,1.88
2022-08-19T16:46:57.386Z,2.05
2022-08-19T16:49:02.843Z,1.70
2022-08-19T16:51:09.684Z,1.80
2022-08-19T16:53:13.344Z,1.90
2022-08-19T16:55:17.236Z,2.40
2022-08-19T16:57:21.037Z,2.90
2022-08-19T16:59:26.126Z,2.88
2022-08-19T17:01:30.291Z,2.50
2022-08-19T17:03:36.884Z,2.13
2022-08-19T17:05:44.345Z,2.80
2022-08-19T17:07:47.947Z,2.60
2022-08-19T17:09:52.601Z,2.25
2022-08-19T17:11:56.367Z,2.47
2022-08-19T17:14:00.024Z,3.38
2022-08-19T17:16:05.707Z,2.50
2022-08-19T17:18:11.664Z,1.83
2022-08-19T17:20:15.291Z,1.98
2022-08-19T17:22:18.911Z,1.88
2022-08-19T17:24:22.544Z,2.00
2022-08-19T17:26:27.511Z,1.60
2022-08-19T17:28:31.420Z,1.90
2022-08-19T17:30:35.447Z,1.50
2022-08-19T17:32:40.722Z,1.77
2022-08-19T17:34:44.363Z,1.77
2022-08-19T17:36:47.908Z,1.40
2022-08-19T17:38:52.091Z,1.98
2022-08-19T17:41:04.787Z,1.83
2022-08-19T17:43:08.733Z,1.92
2022-08-19T17:45:13.411Z,2.30
2022-08-19T17:47:17.045Z,1.83
2022-08-19T17:49:22.218Z,1.95
2022-08-19T17:51:40.591Z,1.90
2022-08-19T17:53:46.026Z,2.10
2022-08-19T17:55:49.771Z,2.05
2022-08-19T17:57:53.497Z,1.83
2022-08-19T17:59:58.824Z,1.70
2022-08-19T18:02:03.261Z,2.20
2022-08-19T18:04:10.187Z,2.15
2022-08-19T18:06:16.851Z,2.35
2022-08-19T18:08:20.669Z,2.25
2022-08-19T18:10:32.057Z,1.92
2022-08-19T18:12:39.087Z,2.20
2022-08-19T18:14:43.267Z,2.13
2022-08-19T18:16:47.120Z,2.08
2022-08-19T18:18:50.688Z,2.60
2022-08-19T18:20:54.422Z,2.05
2022-08-19T18:23:45.469Z,2.45
2022-08-19T18:25:26.902Z,2.35
2022-08-19T18:27:30.710Z,2.15
2022-08-19T18:29:38.527Z,2.42
2022-08-19T18:31:43.838Z,2.13
2022-08-19T18:33:52.827Z,2.08
2022-08-19T18:35:56.943Z,2.38
2022-08-19T18:38:23.826Z,1.27
2022-08-19T18:40:46.347Z,1.30
2022-08-19T18:43:19.013Z,1.92
2022-08-19T18:45:43.620Z,1.40
2022-08-19T18:48:04.754Z,1.33
2022-08-19T18:50:10.044Z,1.33
2022-08-19T18:52:15.501Z,1.10
2022-08-19T18:54:21.259Z,1.48
2022-08-19T18:56:29.466Z,1.45
2022-08-19T18:58:34.456Z,1.25
2022-08-19T19:00:38.073Z,1.58
2022-08-19T19:02:41.783Z,2.15
2022-08-19T19:04:45.956Z,2.00
2022-08-19T19:06:50.187Z,2.35
2022-08-19T19:08:55.175Z,1.35
2022-08-19T19:11:05.317Z,1.42
2022-08-19T19:13:08.796Z,1.70
2022-08-19T19:15:12.607Z,1.60
2022-08-19T19:17:16.918Z,1.10
2022-08-19T19:19:20.759Z,1.00
2022-08-19T19:21:31.908Z,0.90
2022-08-19T19:23:40.949Z,1.33
2022-08-19T19:25:50.713Z,1.15
2022-08-19T19:27:56.332Z,0.98
2022-08-19T19:30:00.163Z,1.50
2022-08-19T19:32:04.219Z,1.02
2022-08-19T19:34:29.257Z,2.10
2022-08-19T19:36:32.000Z,1.55
2022-08-19T19:38:36.118Z,1.90
2022-08-19T19:40:40.018Z,1.70
2022-08-19T19:42:43.840Z,1.65
2022-08-19T19:44:50.598Z,1.55
2022-08-19T19:46:57.960Z,1.70
2022-08-19T19:49:02.216Z,2.25
2022-08-19T19:51:06.428Z,1.80
2022-08-19T19:53:10.401Z,1.65
2022-08-19T19:55:18.660Z,1.65
2022-08-19T19:57:26.923Z,1.80
2022-08-19T19:59:30.508Z,2.00
2022-08-19T20:01:35.835Z,1.67
2022-08-19T20:03:40.580Z,1.52
2022-08-19T20:05:44.282Z,1.58
2022-08-19T20:08:05.259Z,1.70
2022-08-19T20:10:09.606Z,1.20
2022-08-19T20:12:13.546Z,1.77
2022-08-19T20:14:20.323Z,1.80
2022-08-19T20:16:25.613Z,1.85
2022-08-19T20:18:30.778Z,1.35
2022-08-19T20:20:34.477Z,1.90
2022-08-19T20:22:40.305Z,2.83
2022-08-19T20:24:45.032Z,3.35
2022-08-19T20:26:53.420Z,4.95
2022-08-19T20:29:07.262Z,1.70
2022-08-19T20:31:17.843Z,2.10
2022-08-19T20:33:21.593Z,1.60
2022-08-19T20:35:26.979Z,1.80
2022-08-19T20:37:30.643Z,2.08
2022-08-19T20:39:34.700Z,2.40
2022-08-19T20:41:39.424Z,3.20
2022-08-19T20:43:43.434Z,3.20
2022-08-19T20:45:47.259Z,2.40
2022-08-19T20:47:50.828Z,2.03
2022-08-19T20:49:54.535Z,2.10
2022-08-19T20:51:59.616Z,1.90
2022-08-19T20:54:03.156Z,1.88
2022-08-19T20:56:09.431Z,2.97
2022-08-19T20:58:20.638Z,2.47
2022-08-19T21:00:24.156Z,1.83
2022-08-19T21:02:27.981Z,2.05
2022-08-19T21:04:31.784Z,1.80
2022-08-19T21:06:35.413Z,1.98
2022-08-19T21:08:41.717Z,1.80
2022-08-19T21:10:45.859Z,1.65
2022-08-19T21:12:49.512Z,2.05
2022-08-19T21:14:53.329Z,1.70
2022-08-19T21:16:57.063Z,1.95
2022-08-19T21:19:00.666Z,1.60
2022-08-19T21:21:04.896Z,2.15
2022-08-19T21:23:11.191Z,4.63
2022-08-19T21:25:18.260Z,7.68
2022-08-19T21:27:21.885Z,4.32
2022-08-19T21:29:25.739Z,2.58
2022-08-19T21:31:29.472Z,2.60
2022-08-19T21:33:33.264Z,1.80
2022-08-19T21:35:37.414Z,2.05
2022-08-19T21:37:40.979Z,1.67
2022-08-19T21:39:44.738Z,1.90
2022-08-19T21:41:50.036Z,1.63
2022-08-19T21:43:54.117Z,2.08
2022-08-19T21:45:57.619Z,9.32
2022-08-19T21:48:01.324Z,2.38
2022-08-19T21:50:06.536Z,1.88
2022-08-19T21:52:10.856Z,1.60
2022-08-19T21:54:14.470Z,2.00
2022-08-19T21:56:18.153Z,1.88
2022-08-19T21:58:30.134Z,1.90
2022-08-19T22:00:35.560Z,1.40
2022-08-19T22:02:40.120Z,1.73
2022-08-19T22:04:43.905Z,1.95
2022-08-19T22:06:47.712Z,2.15
2022-08-19T22:08:51.434Z,2.10
2022-08-19T22:10:55.402Z,1.83
2022-08-19T22:13:00.498Z,2.00
2022-08-19T22:15:07.338Z,2.58
2022-08-19T22:17:10.978Z,2.40
2022-08-19T22:19:14.681Z,1.63
2022-08-19T22:21:21.274Z,2.03
2022-08-19T22:23:44.517Z,2.55
2022-08-19T22:25:48.665Z,1.98
2022-08-19T22:27:52.617Z,2.78
2022-08-19T22:30:00.365Z,1.90
2022-08-19T22:32:26.166Z,4.65
2022-08-19T22:34:30.206Z,1.65
2022-08-19T22:36:34.383Z,2.08
2022-08-19T22:38:38.622Z,2.50
2022-08-19T22:40:48.595Z,2.50
2022-08-19T22:43:00.271Z,1.95
2022-08-19T22:45:04.133Z,2.15
2022-08-19T22:47:10.259Z,2.30
2022-08-19T22:49:16.348Z,2.30
2022-08-19T22:51:37.146Z,2.33
2022-08-19T22:53:44.114Z,2.50
2022-08-19T22:55:47.752Z,2.00
2022-08-19T22:57:51.355Z,2.45
2022-08-19T22:59:56.150Z,2.50
2022-08-19T23:02:02.620Z,2.45
2022-08-19T23:04:07.891Z,2.00
2022-08-19T23:06:12.535Z,1.85
2022-08-19T23:08:16.123Z,1.70
2022-08-19T23:10:27.134Z,1.88
2022-08-19T23:12:34.875Z,1.92
2022-08-19T23:14:38.567Z,2.17
2022-08-19T23:16:42.894Z,2.03
2022-08-19T23:18:46.771Z,2.15
2022-08-19T23:20:53.984Z,2.33
2022-08-19T23:22:58.688Z,2.00
2022-08-19T23:25:03.878Z,2.15
2022-08-19T23:27:24.840Z,1.75
2022-08-19T23:29:46.039Z,2.00
2022-08-19T23:31:52.135Z,1.85
2022-08-19T23:33:55.650Z,2.42
2022-08-19T23:36:03.062Z,2.40
2022-08-19T23:38:07.713Z,2.45
2022-08-19T23:40:12.063Z,2.00
2022-08-19T23:42:15.753Z,2.35
2022-08-19T23:44:19.464Z,2.30
2022-08-19T23:46:27.759Z,2.30
2022-08-19T23:48:33.156Z,2.40
2022-08-19T23:50:37.654Z,2.13
2022-08-19T23:52:47.692Z,2.45
2022-08-19T23:54:51.379Z,2.72
2022-08-19T23:56:55.034Z,2.63
2022-08-19T23:58:59.455Z,2.45
